Time;durP1;ratioP1;P1;durP2;ratioP2;P2;SDS_P1;SDS_P2;PMS_P1;PMS_P2;Temp;Humidity;BMP_temperature;BMP_pressure;BME280_temperature;BME280_humidity;BME280_pressure;Samples;Min_cycle;Max_cycle;Signal;HPM_P1;HPM_P2
2022/12/10 06:48:23;;;;;;;170.10;55.60;;;0.30;99.90;;;;;;7613108;19;21468;-69
2022/12/10 06:50:55;;;;;;;169.57;55.67;;;0.30;99.90;;;;;;7614526;19;20085;-69
2022/12/10 06:53:28;;;;;;;177.27;57.40;;;0.30;99.90;;;;;;7631824;19;20869;-68
2022/12/10 06:56:01;;;;;;;156.02;53.50;;;0.40;99.90;;;;;;7600856;19;20015;-69
2022/12/10 06:58:34;;;;;;;151.40;54.15;;;0.50;99.90;;;;;;7587323;19;20101;-70
2022/12/10 07:01:08;;;;;;;;;;;0.50;99.90;;;;;;7602895;19;20022;-70
2022/12/10 07:03:41;;;;;;;144.93;52.03;;;0.60;99.90;;;;;;7608248;19;19931;-70
2022/12/10 07:06:13;;;;;;;145.75;51.45;;;0.60;99.90;;;;;;7598034;19;20118;-70
2022/12/10 07:08:46;;;;;;;137.80;53.17;;;0.60;99.90;;;;;;7629331;19;20140;-70
2022/12/10 07:11:21;;;;;;;146.43;53.87;;;0.70;99.90;;;;;;7630133;19;20022;-70
2022/12/10 07:13:53;;;;;;;142.75;53.05;;;0.70;99.90;;;;;;7583892;19;20394;-70
2022/12/10 07:16:28;;;;;;;129.65;50.83;;;0.70;99.90;;;;;;7631563;19;20064;-69
2022/12/10 07:19:01;;;;;;;132.27;50.90;;;0.80;99.90;;;;;;7625630;19;20673;-70
2022/12/10 07:21:35;;;;;;;121.82;49.10;;;0.80;99.90;;;;;;7632634;19;20018;-69
2022/12/10 07:24:11;;;;;;;121.97;48.80;;;0.90;99.90;;;;;;7601382;19;20912;-70
2022/12/10 07:26:45;;;;;;;123.10;49.35;;;0.90;99.90;;;;;;7620134;19;20010;-70
2022/12/10 07:29:20;;;;;;;116.50;46.85;;;0.90;99.90;;;;;;7613449;19;20016;-70
2022/12/10 07:31:54;;;;;;;129.73;49.13;;;0.90;99.90;;;;;;7619921;19;20113;-70
2022/12/10 07:34:27;;;;;;;121.03;48.75;;;0.90;99.90;;;;;;7603036;19;20375;-70
2022/12/10 07:36:59;;;;;;;112.60;47.13;;;1.00;99.90;;;;;;7624084;19;20569;-69
2022/12/10 07:39:31;;;;;;;135.70;49.47;;;1.00;99.90;;;;;;7611141;19;20022;-69
2022/12/10 07:42:03;;;;;;;119.38;47.83;;;1.10;99.90;;;;;;7618966;19;20018;-69
2022/12/10 07:44:35;;;;;;;101.53;42.85;;;1.10;99.90;;;;;;7615432;19;20025;-69
2022/12/10 07:47:07;;;;;;;116.00;47.03;;;1.10;99.90;;;;;;7598309;19;20014;-71
2022/12/10 07:49:39;;;;;;;117.47;46.72;;;1.20;99.90;;;;;;7608038;19;20493;-70
2022/12/10 07:52:11;;;;;;;110.45;46.20;;;1.20;99.90;;;;;;7602449;19;20014;-70
2022/12/10 07:54:44;;;;;;;121.32;47.95;;;1.20;99.90;;;;;;7617044;19;20015;-70
2022/12/10 07:57:16;;;;;;;113.53;46.28;;;1.20;99.90;;;;;;7620490;19;20022;-70
2022/12/10 07:59:48;;;;;;;115.82;45.63;;;1.20;99.90;;;;;;7573335;19;20022;-70
2022/12/10 08:02:20;;;;;;;101.78;44.70;;;1.30;99.90;;;;;;7566726;19;20018;-69
2022/12/10 08:04:52;;;;;;;110.32;43.10;;;1.30;99.90;;;;;;7585242;19;20014;-70
2022/12/10 08:07:24;;;;;;;106.22;44.03;;;1.20;99.90;;;;;;7570798;19;20010;-68
2022/12/10 08:09:56;;;;;;;109.75;44.63;;;1.30;99.90;;;;;;7546855;19;20015;-68
2022/12/10 08:12:29;;;;;;;96.13;41.33;;;1.30;99.90;;;;;;7542768;19;20014;-68
2022/12/10 08:15:02;;;;;;;113.80;44.20;;;1.30;99.90;;;;;;7573767;19;20018;-68
2022/12/10 08:17:35;;;;;;;;;;;1.30;99.90;;;;;;7597114;19;20424;-68
2022/12/10 08:20:08;;;;;;;112.00;43.13;;;1.30;99.90;;;;;;7598211;19;19938;-69
2022/12/10 08:22:41;;;;;;;102.10;42.78;;;1.40;99.90;;;;;;7601253;19;20054;-68
2022/12/10 08:25:13;;;;;;;102.38;43.35;;;1.40;99.90;;;;;;7586218;19;20058;-68
2022/12/10 08:27:46;;;;;;;100.40;43.38;;;1.40;99.90;;;;;;7533819;19;20022;-68
2022/12/10 08:30:18;;;;;;;103.97;42.67;;;1.30;99.90;;;;;;7597986;19;20014;-68
2022/12/10 08:32:50;;;;;;;100.50;42.42;;;1.30;99.90;;;;;;7597895;19;20018;-69
2022/12/10 08:35:22;;;;;;;98.93;42.50;;;1.30;99.90;;;;;;7590648;19;20019;-69
2022/12/10 08:37:54;;;;;;;103.75;42.53;;;1.30;99.90;;;;;;7573627;19;20921;-69
2022/12/10 08:40:26;;;;;;;101.35;42.70;;;1.30;99.90;;;;;;7592738;19;20025;-68
2022/12/10 08:42:58;;;;;;;96.47;41.42;;;1.40;99.90;;;;;;7589723;19;20019;-68
2022/12/10 08:45:30;;;;;;;95.30;39.95;;;1.30;99.90;;;;;;7586647;19;20022;-69
2022/12/10 08:48:03;;;;;;;86.57;38.80;;;1.40;99.90;;;;;;7573746;19;20018;-69
2022/12/10 08:50:36;;;;;;;82.82;36.60;;;1.40;99.90;;;;;;7590574;19;20019;-69
2022/12/10 08:53:09;;;;;;;86.85;36.90;;;1.40;99.90;;;;;;7591755;19;20037;-69
2022/12/10 08:55:41;;;;;;;86.45;37.08;;;1.40;99.90;;;;;;7534617;19;20039;-69
2022/12/10 08:58:20;;;;;;;80.85;36.55;;;1.30;99.90;;;;;;7560361;19;20021;-69
2022/12/10 09:00:52;;;;;;;83.13;36.63;;;1.40;99.90;;;;;;7545874;19;20924;-69
2022/12/10 09:03:25;;;;;;;85.18;38.65;;;1.40;99.90;;;;;;7564263;19;20017;-70
2022/12/10 09:06:02;;;;;;;81.20;36.08;;;1.40;99.90;;;;;;7575530;19;20018;-70
2022/12/10 09:08:35;;;;;;;84.13;37.53;;;1.50;99.90;;;;;;7571149;19;20026;-69
2022/12/10 09:11:17;;;;;;;88.13;37.33;;;1.50;99.90;;;;;;7567700;19;20043;-71
2022/12/10 09:13:50;;;;;;;94.55;39.65;;;1.50;99.90;;;;;;7554783;19;20258;-71
2022/12/10 09:16:31;;;;;;;76.40;35.40;;;1.50;99.90;;;;;;7562675;19;21017;-72
2022/12/10 09:19:04;;;;;;;81.45;35.83;;;1.50;99.90;;;;;;7572492;19;20122;-72
2022/12/10 09:21:36;;;;;;;78.88;36.47;;;1.60;99.90;;;;;;7562027;19;20017;-71
2022/12/10 09:24:09;;;;;;;78.35;34.90;;;1.60;99.90;;;;;;7565246;19;20030;-71
2022/12/10 09:26:41;;;;;;;81.03;36.03;;;1.60;99.90;;;;;;7581156;19;20102;-71
2022/12/10 09:29:13;;;;;;;86.53;40.00;;;1.60;99.90;;;;;;7551821;19;20021;-71
2022/12/10 09:31:50;;;;;;;84.18;38.30;;;1.60;99.90;;;;;;7551053;19;20359;-72
2022/12/10 09:34:23;;;;;;;84.72;36.70;;;1.60;99.90;;;;;;7582686;19;20018;-71
2022/12/10 09:36:55;;;;;;;83.60;38.17;;;1.60;99.90;;;;;;7576364;19;22979;-71
2022/12/10 09:39:27;;;;;;;90.63;39.58;;;1.50;99.90;;;;;;7583403;19;20513;-70
2022/12/10 09:42:24;;;;;;;92.87;39.50;;;1.50;99.90;;;;;;7570261;19;20027;-71
2022/12/10 09:44:56;;;;;;;90.43;39.45;;;1.60;99.90;;;;;;7603880;19;20690;-71
2022/12/10 09:47:40;;;;;;;89.32;38.78;;;1.60;99.90;;;;;;7613470;19;20018;-71
2022/12/10 09:50:30;;;;;;;94.63;40.53;;;1.60;99.90;;;;;;7610780;19;20029;-70
2022/12/10 09:53:04;;;;;;;91.60;38.28;;;1.60;99.90;;;;;;7594143;19;20081;-70
2022/12/10 09:55:40;;;;;;;87.30;38.13;;;1.60;99.90;;;;;;7594176;19;20018;-71
2022/12/10 09:58:18;;;;;;;103.38;42.47;;;1.60;99.90;;;;;;7595543;19;20021;-72
2022/12/10 10:00:59;;;;;;;102.10;41.45;;;1.70;99.90;;;;;;7602429;19;20109;-71
2022/12/10 10:03:36;;;;;;;100.55;41.63;;;1.60;99.90;;;;;;7607588;19;20023;-71
2022/12/10 10:06:12;;;;;;;107.18;43.72;;;1.60;99.90;;;;;;7575079;19;20011;-71
2022/12/10 10:08:51;;;;;;;107.20;41.92;;;1.60;99.90;;;;;;7604952;19;20026;-72
2022/12/10 10:11:28;;;;;;;115.28;42.63;;;1.60;99.90;;;;;;7599799;19;20010;-71
2022/12/10 10:14:09;;;;;;;110.82;42.63;;;1.60;99.90;;;;;;7591687;19;20104;-71
2022/12/10 10:17:01;;;;;;;118.50;45.63;;;1.60;99.90;;;;;;7605602;19;21865;-72
2022/12/10 10:19:38;;;;;;;99.03;40.85;;;1.60;99.90;;;;;;7587258;19;20029;-70
2022/12/10 10:22:11;;;;;;;105.13;41.00;;;1.70;99.90;;;;;;7594439;19;20616;-71
2022/12/10 10:24:45;;;;;;;99.40;40.03;;;1.70;99.90;;;;;;7604010;19;20678;-71
2022/12/10 10:27:21;;;;;;;106.20;45.30;;;1.70;99.90;;;;;;7606145;19;20023;-71
2022/12/10 10:29:56;;;;;;;114.80;44.08;;;1.70;99.90;;;;;;7595699;19;20022;-71
2022/12/10 10:32:35;;;;;;;102.30;41.78;;;1.70;99.90;;;;;;7611758;19;20025;-72
2022/12/10 10:35:30;;;;;;;97.13;40.85;;;1.60;99.90;;;;;;7596328;19;20017;-71
2022/12/10 10:38:12;;;;;;;106.43;43.25;;;1.60;99.90;;;;;;7574567;19;20047;-71
2022/12/10 10:40:50;;;;;;;104.13;40.93;;;1.60;99.90;;;;;;7589621;19;20137;-72
2022/12/10 10:43:33;;;;;;;99.70;42.25;;;1.60;99.90;;;;;;7599858;19;20133;-71
2022/12/10 10:46:23;;;;;;;110.35;40.67;;;1.60;99.90;;;;;;7597812;19;20020;-70
2022/12/10 10:49:33;;;;;;;96.90;39.72;;;1.60;99.90;;;;;;7600806;19;20018;-71
2022/12/10 10:52:15;;;;;;;98.03;39.03;;;1.60;99.90;;;;;;7607464;19;20043;-71
2022/12/10 10:54:48;;;;;;;106.30;41.40;;;1.70;99.90;;;;;;7562953;19;20015;-71
2022/12/10 10:57:34;;;;;;;103.68;41.35;;;1.70;99.90;;;;;;7569062;19;20102;-70
2022/12/10 11:00:19;;;;;;;109.20;44.72;;;1.70;99.90;;;;;;7568284;19;20123;-71
2022/12/10 11:02:52;;;;;;;106.05;44.20;;;1.70;99.90;;;;;;7583317;19;20011;-71
2022/12/10 11:05:28;;;;;;;112.38;45.33;;;1.70;99.90;;;;;;7569934;19;20014;-72
2022/12/10 11:08:17;;;;;;;95.82;41.08;;;1.80;99.90;;;;;;7573781;19;20022;-71
2022/12/10 11:10:54;;;;;;;106.30;42.42;;;1.80;99.90;;;;;;7596034;19;20026;-71
2022/12/10 11:13:30;;;;;;;109.68;43.42;;;1.80;99.90;;;;;;7584986;19;20018;-70
2022/12/10 11:16:14;;;;;;;104.82;40.83;;;1.80;99.90;;;;;;7556540;19;20022;-72
2022/12/10 11:19:05;;;;;;;110.70;43.83;;;1.80;99.90;;;;;;7576493;19;20078;-70
2022/12/10 11:21:38;;;;;;;112.78;45.60;;;1.80;99.90;;;;;;7593605;19;20457;-71
2022/12/10 11:24:11;;;;;;;116.43;47.17;;;1.80;99.90;;;;;;7596031;19;20015;-72
2022/12/10 11:26:44;;;;;;;;;;;1.70;99.90;;;;;;7598908;19;20030;-72
2022/12/10 11:29:41;;;;;;;107.40;41.13;;;1.70;99.90;;;;;;7590529;19;19910;-72
2022/12/10 11:32:35;;;;;;;104.88;41.58;;;1.70;99.90;;;;;;7594423;19;20098;-71
2022/12/10 11:35:18;;;;;;;105.82;40.75;;;1.70;99.90;;;;;;7609298;19;20377;-72
2022/12/10 11:37:56;;;;;;;100.35;40.50;;;1.80;99.90;;;;;;7591195;19;20060;-72
2022/12/10 11:41:22;;;;;;;101.65;41.08;;;1.80;99.90;;;;;;7603423;19;20054;-72
2022/12/10 11:44:27;;;;;;;108.63;41.00;;;1.80;99.90;;;;;;7605493;19;20339;-72
2022/12/10 11:47:22;;;;;;;99.78;40.30;;;1.80;99.90;;;;;;7610320;19;20014;-71
2022/12/10 11:50:06;;;;;;;96.00;40.72;;;1.80;99.90;;;;;;7607940;19;20022;-72
2022/12/10 11:52:58;;;;;;;107.32;42.42;;;1.90;99.90;;;;;;7602360;19;20015;-71
2022/12/10 11:56:08;;;;;;;99.53;41.33;;;1.80;99.90;;;;;;7604197;19;20018;-72
2022/12/10 11:58:57;;;;;;;93.55;38.10;;;1.80;99.90;;;;;;7613147;19;20018;-71
2022/12/10 12:01:50;;;;;;;96.55;38.65;;;1.80;99.90;;;;;;7595896;19;20513;-71
2022/12/10 12:04:53;;;;;;;106.43;41.47;;;1.80;99.90;;;;;;7582764;19;20019;-72
2022/12/10 12:07:48;;;;;;;89.80;38.35;;;1.80;99.90;;;;;;7581515;19;20026;-71
2022/12/10 12:10:27;;;;;;;99.50;40.78;;;1.80;99.90;;;;;;7566450;19;20018;-71
2022/12/10 12:13:05;;;;;;;105.18;42.03;;;1.80;99.90;;;;;;7603108;19;20014;-72
2022/12/10 12:15:46;;;;;;;92.38;38.55;;;1.90;99.90;;;;;;7601625;19;20007;-72
2022/12/10 12:18:35;;;;;;;99.93;40.25;;;1.90;99.90;;;;;;7609540;19;20019;-71
2022/12/10 12:21:14;;;;;;;99.25;39.03;;;1.90;99.90;;;;;;7591075;19;20028;-71
2022/12/10 12:24:03;;;;;;;94.82;38.80;;;1.90;99.90;;;;;;7563600;19;20034;-71
2022/12/10 12:26:45;;;;;;;102.25;39.80;;;1.90;99.90;;;;;;7568841;19;20399;-71
2022/12/10 12:29:26;;;;;;;103.07;40.05;;;1.90;99.90;;;;;;7585035;19;20025;-71
2022/12/10 12:32:24;;;;;;;99.47;40.47;;;1.80;99.90;;;;;;7554165;19;20025;-71
2022/12/10 12:34:59;;;;;;;100.15;40.17;;;1.80;99.90;;;;;;7593504;19;20022;-71
2022/12/10 12:37:48;;;;;;;100.30;39.30;;;1.80;99.90;;;;;;7564890;19;20445;-71
2022/12/10 12:40:35;;;;;;;92.43;39.25;;;1.80;99.90;;;;;;7576526;19;20542;-72
2022/12/10 12:43:18;;;;;;;100.13;41.10;;;1.80;99.90;;;;;;7531827;19;20565;-71
2022/12/10 12:45:55;;;;;;;94.55;38.25;;;1.80;99.90;;;;;;7533284;19;20098;-71
2022/12/10 12:48:36;;;;;;;96.45;38.83;;;1.80;99.90;;;;;;7528595;19;20030;-71
2022/12/10 12:51:26;;;;;;;96.80;39.17;;;1.70;99.90;;;;;;7561798;19;21132;-71
2022/12/10 12:53:59;;;;;;;95.03;37.30;;;1.70;99.90;;;;;;7582257;19;20078;-71
2022/12/10 12:57:09;;;;;;;103.32;39.40;;;1.70;99.90;;;;;;7574210;19;20014;-72
2022/12/10 12:59:47;;;;;;;101.78;38.85;;;1.70;99.90;;;;;;7601814;19;20489;-72
2022/12/10 13:02:22;;;;;;;102.63;40.53;;;1.70;99.90;;;;;;7567325;19;20014;-72
2022/12/10 13:04:54;;;;;;;92.47;38.30;;;1.70;99.90;;;;;;7604029;19;20077;-72
2022/12/10 13:07:29;;;;;;;98.05;39.83;;;1.70;99.90;;;;;;7608500;19;20048;-72
2022/12/10 13:10:13;;;;;;;91.97;39.20;;;1.70;99.90;;;;;;7586082;19;20061;-71
2022/12/10 13:12:45;;;;;;;103.00;42.42;;;1.70;99.90;;;;;;7581830;19;20038;-72
2022/12/10 13:15:21;;;;;;;103.00;39.97;;;1.70;99.90;;;;;;7578460;19;20040;-71
2022/12/10 13:18:32;;;;;;;102.25;41.50;;;1.70;99.90;;;;;;7600096;19;20022;-71
2022/12/10 13:21:26;;;;;;;103.30;38.80;;;1.60;99.90;;;;;;7593543;19;20014;-71
2022/12/10 13:24:12;;;;;;;104.78;40.20;;;1.60;99.90;;;;;;7586382;19;20022;-71
2022/12/10 13:27:15;;;;;;;109.70;44.35;;;1.60;99.90;;;;;;7592567;19;20121;-71
2022/12/10 13:29:59;;;;;;;106.22;43.47;;;1.60;99.90;;;;;;7587053;19;20052;-71
2022/12/10 13:32:32;;;;;;;119.93;44.92;;;1.50;99.90;;;;;;7589269;19;20014;-70
2022/12/10 13:35:31;;;;;;;117.45;44.33;;;1.50;99.90;;;;;;7585155;19;20089;-70
2022/12/10 13:38:17;;;;;;;120.03;46.15;;;1.50;99.90;;;;;;7571719;19;20010;-70
2022/12/10 13:44:34;;;;;;;107.30;42.05;;;1.50;99.90;;;;;;7602084;19;21275;-70
2022/12/10 13:47:12;;;;;;;108.18;42.00;;;1.50;99.90;;;;;;7589910;19;20392;-70
2022/12/10 13:50:06;;;;;;;109.60;42.75;;;1.50;99.90;;;;;;7583787;19;20053;-70
2022/12/10 13:53:01;;;;;;;95.80;38.72;;;1.50;99.90;;;;;;7600778;19;20018;-70
2022/12/10 13:55:49;;;;;;;99.43;40.60;;;1.50;99.90;;;;;;7573918;19;20132;-70
2022/12/10 13:59:07;;;;;;;106.55;42.47;;;1.50;99.90;;;;;;7598608;19;20397;-70
2022/12/10 14:02:20;;;;;;;117.38;44.95;;;1.50;99.90;;;;;;7562970;19;20021;-70
2022/12/10 14:05:21;;;;;;;107.17;41.13;;;1.40;99.90;;;;;;7612074;19;20715;-70
2022/12/10 14:07:57;;;;;;;102.30;41.00;;;1.40;99.90;;;;;;7591043;19;20023;-70
2022/12/10 14:10:34;;;;;;;98.45;39.25;;;1.40;99.90;;;;;;7594497;19;20015;-70
2022/12/10 14:13:06;;;;;;;99.70;41.70;;;1.40;99.90;;;;;;7606342;19;20070;-70
2022/12/10 14:15:39;;;;;;;106.65;43.40;;;1.40;99.90;;;;;;7589448;19;20018;-70
2022/12/10 14:18:15;;;;;;;106.40;43.00;;;1.40;99.90;;;;;;7562596;19;20010;-70
2022/12/10 14:20:52;;;;;;;102.10;42.20;;;1.40;99.90;;;;;;7592420;19;20057;-70
2022/12/10 14:23:38;;;;;;;107.50;42.17;;;1.40;99.90;;;;;;7570963;19;20018;-70
2022/12/10 14:26:21;;;;;;;112.03;43.47;;;1.50;99.90;;;;;;7571686;19;20060;-70
2022/12/10 14:29:00;;;;;;;107.28;42.55;;;1.40;99.90;;;;;;7571300;19;20014;-70
2022/12/10 14:31:35;;;;;;;97.40;40.88;;;1.40;99.90;;;;;;7559431;19;20029;-70
2022/12/10 14:34:12;;;;;;;121.57;46.85;;;1.50;99.90;;;;;;7584447;19;20016;-70
2022/12/10 14:36:48;;;;;;;97.65;43.80;;;1.50;99.90;;;;;;7571125;19;20039;-70
2022/12/10 14:39:25;;;;;;;107.65;43.10;;;1.50;99.90;;;;;;7577588;19;20013;-70
2022/12/10 14:42:04;;;;;;;107.25;42.42;;;1.50;99.90;;;;;;7577025;19;20030;-70
2022/12/10 14:44:39;;;;;;;112.45;44.88;;;1.40;99.90;;;;;;7561366;19;20098;-70
2022/12/10 14:47:18;;;;;;;102.78;43.83;;;1.50;99.90;;;;;;7546683;19;20023;-70
2022/12/10 14:49:54;;;;;;;103.45;44.53;;;1.40;99.90;;;;;;7538302;19;20031;-70
2022/12/10 14:52:35;;;;;;;103.50;43.10;;;1.40;99.90;;;;;;7513751;19;20195;-70
2022/12/10 14:55:16;;;;;;;105.07;43.85;;;1.50;99.90;;;;;;7525118;19;20006;-69
2022/12/10 14:57:56;;;;;;;102.20;42.50;;;1.40;99.90;;;;;;7576007;19;20023;-70
2022/12/10 15:00:29;;;;;;;103.38;42.92;;;1.50;99.90;;;;;;7562796;19;20082;-70
2022/12/10 15:03:08;;;;;;;114.97;46.27;;;1.40;99.90;;;;;;7566298;19;20055;-69
2022/12/10 15:05:41;;;;;;;88.10;39.00;;;1.40;99.90;;;;;;7574297;19;20259;-70
2022/12/10 15:08:17;;;;;;;98.05;40.10;;;1.40;99.90;;;;;;7557917;19;20413;-70
2022/12/10 15:10:54;;;;;;;96.40;40.35;;;1.40;99.90;;;;;;7542110;19;20873;-70
2022/12/10 15:13:40;;;;;;;97.40;39.47;;;1.30;99.90;;;;;;7567732;19;20021;-69
2022/12/10 15:16:28;;;;;;;86.35;38.00;;;1.40;99.90;;;;;;7553125;19;20036;-70
2022/12/10 15:19:35;;;;;;;90.60;38.92;;;1.30;99.90;;;;;;7551883;19;20014;-70
2022/12/10 15:22:26;;;;;;;89.88;38.00;;;1.20;99.90;;;;;;7548358;19;20126;-70
2022/12/10 15:25:09;;;;;;;93.38;36.22;;;1.20;99.90;;;;;;7572770;19;21116;-70
2022/12/10 15:27:59;;;;;;;91.90;38.17;;;1.20;99.90;;;;;;7560330;19;20019;-69
2022/12/10 15:30:38;;;;;;;116.00;42.55;;;1.20;99.90;;;;;;7560153;19;20015;-70
2022/12/10 15:33:27;;;;;;;100.25;43.22;;;1.20;99.90;;;;;;7550382;19;20103;-70
2022/12/10 15:36:00;;;;;;;93.32;38.22;;;1.30;99.90;;;;;;7533805;19;20368;-68
2022/12/10 15:38:33;;;;;;;99.40;40.80;;;1.20;99.90;;;;;;7568389;19;20010;-70
2022/12/10 15:41:43;;;;;;;95.13;39.67;;;1.30;99.90;;;;;;7562460;19;20347;-69
2022/12/10 15:44:29;;;;;;;93.20;38.55;;;1.30;99.90;;;;;;7560250;19;20029;-69
2022/12/10 15:47:13;;;;;;;116.70;45.42;;;1.30;99.90;;;;;;7560761;19;20522;-68
2022/12/10 15:49:45;;;;;;;;;;;1.20;99.90;;;;;;7564796;19;20015;-69
2022/12/10 15:52:24;;;;;;;100.68;40.85;;;1.20;99.90;;;;;;7534070;19;19919;-69
2022/12/10 15:54:58;;;;;;;107.57;41.53;;;1.20;99.90;;;;;;7544334;19;20030;-68
2022/12/10 15:57:32;;;;;;;97.00;40.92;;;1.20;99.90;;;;;;7507780;19;25441;-68
2022/12/10 16:00:08;;;;;;;102.47;43.40;;;1.10;99.90;;;;;;7530165;19;20015;-66
2022/12/10 16:02:54;;;;;;;122.55;49.42;;;1.20;99.90;;;;;;7534105;19;20902;-67
2022/12/10 16:05:29;;;;;;;115.70;49.60;;;1.20;99.90;;;;;;7546660;19;21053;-67
2022/12/10 16:08:06;;;;;;;117.30;50.30;;;1.20;99.90;;;;;;7560035;19;20581;-67
2022/12/10 16:10:38;;;;;;;115.80;49.95;;;1.30;99.90;;;;;;7573636;19;20010;-68
2022/12/10 16:13:18;;;;;;;114.57;50.05;;;1.20;99.90;;;;;;7577634;19;20026;-66
2022/12/10 16:15:54;;;;;;;106.00;46.97;;;1.20;99.90;;;;;;7583285;19;20014;-66
2022/12/10 16:18:26;;;;;;;100.20;43.95;;;1.20;99.90;;;;;;7562402;19;20018;-67
2022/12/10 16:21:07;;;;;;;97.65;41.08;;;1.20;99.90;;;;;;7574619;19;20019;-67
2022/12/10 16:23:40;;;;;;;112.10;45.95;;;1.20;99.90;;;;;;7554602;19;21024;-66
2022/12/10 16:26:20;;;;;;;111.82;46.10;;;1.20;99.90;;;;;;7547835;19;20019;-66
2022/12/10 16:28:52;;;;;;;91.25;40.80;;;1.20;99.90;;;;;;7542473;19;20026;-69
2022/12/10 16:31:25;;;;;;;86.55;36.53;;;1.10;99.90;;;;;;7539281;19;20086;-66
2022/12/10 16:33:57;;;;;;;99.10;43.10;;;1.00;99.90;;;;;;7547576;19;20037;-67
2022/12/10 16:36:30;;;;;;;104.85;44.50;;;1.00;99.90;;;;;;7541999;19;20019;-67
2022/12/10 16:39:05;;;;;;;87.70;37.85;;;1.00;99.90;;;;;;7527356;19;20021;-66
2022/12/10 16:41:37;;;;;;;100.90;40.58;;;0.90;99.90;;;;;;7528068;19;20011;-68
2022/12/10 16:44:09;;;;;;;87.43;39.10;;;0.90;99.90;;;;;;7585732;19;20014;-66
2022/12/10 16:46:41;;;;;;;90.10;38.10;;;0.80;99.90;;;;;;7589805;19;20041;-69
2022/12/10 16:49:13;;;;;;;84.72;38.35;;;0.80;99.90;;;;;;7608087;19;20019;-69
2022/12/10 16:51:45;;;;;;;94.55;40.35;;;0.80;99.90;;;;;;7602358;19;20026;-67
2022/12/10 16:54:17;;;;;;;89.18;40.60;;;0.90;99.90;;;;;;7596410;19;20029;-69
2022/12/10 16:56:49;;;;;;;87.72;41.17;;;0.90;99.90;;;;;;7582177;19;20015;-69
2022/12/10 16:59:21;;;;;;;102.85;43.03;;;0.90;99.90;;;;;;7582720;19;20029;-69
2022/12/10 17:01:54;;;;;;;96.78;41.80;;;0.80;99.90;;;;;;7563062;19;20033;-69
2022/12/10 17:04:26;;;;;;;89.25;38.75;;;0.70;99.90;;;;;;7595883;19;20413;-66
2022/12/10 17:06:58;;;;;;;85.53;35.50;;;0.70;99.90;;;;;;7604670;19;20022;-66
2022/12/10 17:09:30;;;;;;;91.57;39.60;;;0.70;99.90;;;;;;7581464;19;20017;-69
2022/12/10 17:12:04;;;;;;;88.97;39.15;;;0.70;99.90;;;;;;7590243;19;20018;-69
2022/12/10 17:14:45;;;;;;;87.40;37.70;;;0.70;99.90;;;;;;7593446;19;20022;-69
2022/12/10 17:17:17;;;;;;;97.97;38.55;;;0.70;99.90;;;;;;7600013;19;20018;-69
2022/12/10 17:19:49;;;;;;;87.85;40.05;;;0.70;99.90;;;;;;7598196;19;20026;-69
2022/12/10 17:22:22;;;;;;;97.85;41.05;;;0.70;99.90;;;;;;7573080;19;20022;-69
2022/12/10 17:24:54;;;;;;;86.60;40.17;;;0.70;99.90;;;;;;7593971;19;20512;-66
2022/12/10 17:27:26;;;;;;;77.55;34.85;;;0.70;99.90;;;;;;7570068;19;20026;-66
2022/12/10 17:29:58;;;;;;;88.60;37.28;;;0.70;99.90;;;;;;7582350;19;20023;-67
2022/12/10 17:32:31;;;;;;;76.05;33.17;;;0.70;99.90;;;;;;7592442;19;20010;-69
2022/12/10 17:35:04;;;;;;;83.40;37.42;;;0.70;99.90;;;;;;7598734;19;20023;-67
2022/12/10 17:37:37;;;;;;;84.22;37.65;;;0.60;99.90;;;;;;7595554;19;20779;-70
2022/12/10 17:40:19;;;;;;;77.50;34.85;;;0.60;99.90;;;;;;7593352;19;20690;-69
2022/12/10 17:42:51;;;;;;;81.32;35.50;;;0.50;99.90;;;;;;7595344;19;20014;-69
2022/12/10 17:45:23;;;;;;;81.50;34.43;;;0.50;99.90;;;;;;7605365;19;20022;-68
2022/12/10 17:47:55;;;;;;;87.57;35.72;;;0.50;99.90;;;;;;7589640;19;20018;-68
2022/12/10 17:50:32;;;;;;;78.63;35.63;;;0.50;99.90;;;;;;7598842;19;20022;-68
2022/12/10 17:53:09;;;;;;;82.68;35.15;;;0.40;99.90;;;;;;7599557;19;20024;-68
2022/12/10 17:55:43;;;;;;;81.43;34.65;;;0.50;99.90;;;;;;7592479;19;20022;-68
2022/12/10 17:58:23;;;;;;;85.95;37.88;;;0.40;99.90;;;;;;7583938;19;20026;-67
2022/12/10 18:00:55;;;;;;;80.18;34.42;;;0.40;99.90;;;;;;7582212;19;20022;-67
2022/12/10 18:03:27;;;;;;;80.90;36.27;;;0.50;99.90;;;;;;7580976;19;20034;-68
2022/12/10 18:06:00;;;;;;;76.10;34.50;;;0.50;99.90;;;;;;7585744;19;20056;-67
2022/12/10 18:08:32;;;;;;;70.53;32.45;;;0.50;99.90;;;;;;7602279;19;20015;-68
2022/12/10 18:11:04;;;;;;;78.60;33.80;;;0.30;99.90;;;;;;7596403;19;20539;-67
2022/12/10 18:13:37;;;;;;;77.17;33.17;;;0.30;99.90;;;;;;7582273;19;20015;-67
2022/12/10 18:16:13;;;;;;;70.70;31.13;;;0.20;99.90;;;;;;7598774;19;20110;-68
2022/12/10 18:18:47;;;;;;;66.90;30.20;;;0.20;99.90;;;;;;7585497;19;20090;-67
2022/12/10 18:21:19;;;;;;;77.38;32.08;;;0.20;99.90;;;;;;7604169;19;20989;-67
2022/12/10 18:23:52;;;;;;;71.50;31.83;;;0.20;99.90;;;;;;7595239;19;20802;-67
2022/12/10 18:26:25;;;;;;;74.35;32.45;;;0.20;99.90;;;;;;7590286;19;20049;-67
2022/12/10 18:28:59;;;;;;;75.22;34.25;;;0.20;99.90;;;;;;7585574;19;20018;-67
2022/12/10 18:31:34;;;;;;;82.38;34.83;;;0.20;99.90;;;;;;7596887;19;20018;-67
2022/12/10 18:34:09;;;;;;;81.15;34.15;;;0.20;99.90;;;;;;7596496;19;20014;-67
2022/12/10 18:36:45;;;;;;;82.80;36.28;;;0.20;99.90;;;;;;7591426;19;20029;-69
2022/12/10 18:39:22;;;;;;;96.43;39.13;;;0.20;99.90;;;;;;7578060;19;20113;-67
2022/12/10 18:41:55;;;;;;;93.68;38.45;;;0.20;99.90;;;;;;7604494;19;20018;-67
2022/12/10 18:44:29;;;;;;;89.90;38.78;;;0.10;99.90;;;;;;7597336;19;20010;-67
2022/12/10 18:47:01;;;;;;;91.97;40.45;;;0.20;99.90;;;;;;7587195;19;20442;-67
2022/12/10 18:49:33;;;;;;;95.00;38.97;;;0.10;99.90;;;;;;7600204;19;20021;-67
2022/12/10 18:52:05;;;;;;;94.20;40.55;;;0.20;99.90;;;;;;7586965;19;20303;-67
2022/12/10 18:54:37;;;;;;;102.45;45.35;;;0.20;99.90;;;;;;7584651;19;20014;-67
2022/12/10 18:57:12;;;;;;;97.35;42.00;;;0.20;99.90;;;;;;7603818;19;20039;-67
2022/12/10 19:00:16;;;;;;;101.07;43.42;;;0.20;99.90;;;;;;7605525;19;20018;-67
2022/12/10 19:02:48;;;;;;;108.10;44.72;;;0.20;99.90;;;;;;7602058;19;20022;-67
2022/12/10 19:05:21;;;;;;;107.82;43.75;;;0.20;99.90;;;;;;7587134;19;20021;-67
2022/12/10 19:07:53;;;;;;;103.57;43.17;;;0.20;99.90;;;;;;7600526;19;20086;-67
2022/12/10 19:10:25;;;;;;;98.30;41.17;;;0.10;99.90;;;;;;7595436;19;20041;-67
2022/12/10 19:12:58;;;;;;;104.85;44.47;;;0.10;99.90;;;;;;7610103;19;20102;-67
2022/12/10 19:15:30;;;;;;;98.95;44.15;;;0.10;99.90;;;;;;7601949;19;20018;-67
2022/12/10 19:18:03;;;;;;;109.68;45.55;;;0.10;99.90;;;;;;7588774;19;20029;-67
2022/12/10 19:20:35;;;;;;;102.77;46.47;;;0.10;99.90;;;;;;7592191;19;20644;-67
2022/12/10 19:23:08;;;;;;;108.72;47.60;;;0.10;99.90;;;;;;7582760;19;20089;-70
2022/12/10 19:25:40;;;;;;;99.50;42.67;;;0.00;99.90;;;;;;7586012;19;20033;-68
2022/12/10 19:28:12;;;;;;;97.57;42.55;;;0.10;99.90;;;;;;7607573;19;20273;-68
2022/12/10 19:30:50;;;;;;;107.90;47.20;;;0.10;99.90;;;;;;7587103;19;20034;-68
2022/12/10 19:33:22;;;;;;;105.38;44.70;;;0.00;99.90;;;;;;7601001;19;20014;-68
2022/12/10 19:35:54;;;;;;;116.75;47.38;;;0.00;99.90;;;;;;7593941;19;20730;-67
2022/12/10 19:38:26;;;;;;;109.28;47.65;;;0.00;99.90;;;;;;7586873;19;20026;-68
2022/12/10 19:40:58;;;;;;;109.85;46.83;;;0.00;99.90;;;;;;7595453;19;20022;-67
2022/12/10 19:43:32;;;;;;;112.65;46.55;;;0.00;99.90;;;;;;7593416;19;20018;-69
2022/12/10 19:46:22;;;;;;;87.97;36.83;;;0.00;99.90;;;;;;7601656;19;20375;-69
2022/12/10 19:48:54;;;;;;;121.68;48.05;;;0.00;99.90;;;;;;7583577;19;20026;-68
2022/12/10 19:51:26;;;;;;;114.65;50.50;;;0.00;99.90;;;;;;7580861;19;20055;-69
2022/12/10 19:53:58;;;;;;;112.95;47.33;;;-0.10;99.90;;;;;;7596715;19;20034;-68
2022/12/10 19:56:32;;;;;;;117.05;50.78;;;-0.10;99.90;;;;;;7612404;19;20035;-68
2022/12/10 19:59:18;;;;;;;119.53;48.80;;;-0.10;99.90;;;;;;7600601;19;21020;-67
2022/12/10 20:01:50;;;;;;;117.53;48.70;;;0.00;99.90;;;;;;7607129;19;20018;-67
2022/12/10 20:04:22;;;;;;;126.88;52.60;;;0.00;99.90;;;;;;7587583;19;20058;-67
2022/12/10 20:06:54;;;;;;;118.57;49.85;;;0.00;99.90;;;;;;7590769;19;20059;-69
2022/12/10 20:09:26;;;;;;;126.70;51.67;;;0.00;99.90;;;;;;7593875;19;20090;-68
2022/12/10 20:11:58;;;;;;;116.20;47.70;;;0.00;99.90;;;;;;7612734;19;20015;-70
2022/12/10 20:14:30;;;;;;;118.32;49.85;;;0.00;99.90;;;;;;7611107;19;20355;-69
2022/12/10 20:17:03;;;;;;;106.55;44.63;;;0.00;99.90;;;;;;7595132;19;20014;-69
2022/12/10 20:19:35;;;;;;;113.90;48.28;;;0.00;99.90;;;;;;7599755;19;20019;-66